עמוד ראשי
METAR-TAF:

METAR-TAF

שדות תעופה :

קוסקו, פרו

קו רוחב: 13-33S, קו אורך: 071-59W, גובה: 3248מטר

תצפית מזג אוויר נוכחית

הדו"ח נערך לפני 23דקות, בשעה 12:00 UTC
רוח 3קשר מכיוון מזרח
טמפרטורת 11 צלסיוס
לחות 87%
לחץ 1033 hPa
ראות 10 קילומטר או יותר
עננים פזורים בגובה 4600רגל
עננים בינוניים בגובה 8000רגל

METAR: SPZO 121200Z 08003KT 9999 SCT046 BKN080 11/09 Q1033 NOSIG RMK TN10.1 BIRD HAZARD RWY 10/28 PP000

זמן: 07:23 (12:23 UTC)

תחזית

הדו"ח נערך לפני 1 שעות ו 23דקות, בשעה 11:00 UTC
תחזית בתוקף מ 12 ב 12 UTC עד 13 ב 12 UTC
רוח 10קשר מכיוון מזרח/דרום-מזרח
ראות 10 קילומטר או יותר
מעט עננים בגובה 4000רגל
עננים פזורים בגובה 8000רגל
יעשה מ
12 ב 12 UTC עד 12 ב 14 UTC
רוח 15קשר מכיוון מערב/צפון-מערב
יעשה מ
13 ב 00 UTC עד 13 ב 02 UTC
רוח 5קשר מכיוון מזרח/דרום-מזרח

TAF: SPZO 121100Z 1212/1312 12010KT 9999 FEW040 SCT080 TX22/1219Z TN10/1311Z BECMG 1212/1214 30015KT BECMG 1300/1302 12005KT

תצפיות ותחזיות מזג אוויר לגבי יותר מ- 4,000 שדות תעופה ברחבי העולם. דוחות METAR ו- TAF.

התחנות הזמינות מסומנות בנקודות צהובות ואדומות על גבי המפה.

העבר את העכבר לנקודה הצבעונית על מנת לראות את שם התחנה.

לאחר מכן, לחץ כדי לראות את תוכן ואת תחזיות מזג האוויר.

כדי לשנות את המפה: לחץ על הכפתורים הירוקים עם הפלוס השחור כדי להתקרב; על הכפתור הירוק עם המקף כדי להתרחק; או בחיצים הירוקים למפות סמוכות.


METAR-TAF: